Time;durP1;ratioP1;P1;durP2;ratioP2;P2;SDS_P1;SDS_P2;PMS_P1;PMS_P2;Temp;Humidity;BMP_temperature;BMP_pressure;BME280_temperature;BME280_humidity;BME280_pressure;Samples;Min_cycle;Max_cycle;Signal;HPM_P1;HPM_P2
2021/09/27 00:01:02;;;;;;;3.70;1.73;;;;;;;;;;10228595;28;20034;-64
2021/09/27 00:06:00;;;;;;;5.72;2.92;;;;;;;;;;10241560;28;20534;-64
2021/09/27 00:11:02;;;;;;;8.88;3.47;;;;;;;;;;10241985;28;20069;-64
2021/09/27 00:16:00;;;;;;;6.63;4.03;;;;;;;;;;10249163;28;20038;-64
2021/09/27 00:20:59;;;;;;;9.87;2.80;;;;;;;;;;10242586;28;20035;-65
2021/09/27 00:25:57;;;;;;;4.03;2.97;;;;;;;;;;10228962;28;20282;-63
2021/09/27 00:30:55;;;;;;;1.38;1.15;;;;;;;;;;10232189;28;20507;-64
2021/09/27 00:35:52;;;;;;;3.73;2.73;;;;;;;;;;10248922;28;20031;-63
2021/09/27 00:40:55;;;;;;;7.87;2.67;;;;;;;;;;10237580;28;20117;-62
2021/09/27 00:45:57;;;;;;;1.88;1.77;;;;;;;;;;10239225;28;20124;-64
2021/09/27 00:51:00;;;;;;;3.25;2.25;;;;;;;;;;10250709;28;20053;-62
2021/09/27 00:55:58;;;;;;;7.63;3.17;;;;;;;;;;10233637;28;20597;-62
2021/09/27 01:00:56;;;;;;;3.03;2.00;;;;;;;;;;10232519;28;20606;-63
2021/09/27 01:06:01;;;;;;;3.17;1.95;;;;;;;;;;10207118;28;20042;-63
2021/09/27 01:10:59;;;;;;;4.57;1.05;;;;;;;;;;10245265;28;20095;-64
2021/09/27 01:16:02;;;;;;;5.67;3.60;;;;;;;;;;10243542;28;20361;-63
2021/09/27 01:21:11;;;;;;;9.55;4.95;;;;;;;;;;10255806;28;20438;-62
2021/09/27 01:26:17;;;;;;;15.52;8.32;;;;;;;;;;10236967;28;20064;-62
2021/09/27 01:31:30;;;;;;;11.80;7.28;;;;;;;;;;10222787;28;20040;-63
2021/09/27 01:36:50;;;;;;;17.52;10.30;;;;;;;;;;10250515;28;20041;-65
2021/09/27 01:41:51;;;;;;;24.30;13.82;;;;;;;;;;10216617;28;20504;-63
2021/09/27 01:46:56;;;;;;;12.40;7.20;;;;;;;;;;10236174;28;20056;-68
2021/09/27 01:51:54;;;;;;;13.85;8.02;;;;;;;;;;10228743;28;20120;-65
2021/09/27 01:56:57;;;;;;;15.90;6.43;;;;;;;;;;10256149;28;20116;-65
2021/09/27 02:02:01;;;;;;;5.07;2.65;;;;;;;;;;10271276;28;20404;-62
2021/09/27 02:07:00;;;;;;;11.07;5.18;;;;;;;;;;10238631;28;20277;-62
2021/09/27 02:12:03;;;;;;;16.40;7.95;;;;;;;;;;10257023;28;20038;-64
2021/09/27 02:17:03;;;;;;;9.02;4.47;;;;;;;;;;10245552;28;20339;-63
2021/09/27 02:22:21;;;;;;;9.63;6.75;;;;;;;;;;10227498;28;20042;-63
2021/09/27 02:27:18;;;;;;;21.40;6.72;;;;;;;;;;10250139;28;20041;-63
2021/09/27 02:32:19;;;;;;;7.90;5.73;;;;;;;;;;10247641;28;20495;-63
2021/09/27 02:37:30;;;;;;;17.17;5.43;;;;;;;;;;10235490;28;20474;-62
2021/09/27 02:42:27;;;;;;;15.23;7.70;;;;;;;;;;10248256;28;20120;-65
2021/09/27 02:47:29;;;;;;;6.57;4.33;;;;;;;;;;10248061;28;20171;-63
2021/09/27 02:52:27;;;;;;;14.05;7.35;;;;;;;;;;10252090;28;20491;-62
2021/09/27 02:57:39;;;;;;;23.30;8.97;;;;;;;;;;10251466;28;20074;-61
2021/09/27 03:02:43;;;;;;;17.52;8.38;;;;;;;;;;10209531;28;20080;-64
2021/09/27 03:07:40;;;;;;;12.55;7.32;;;;;;;;;;10229536;28;20037;-63
2021/09/27 03:12:47;;;;;;;15.17;6.67;;;;;;;;;;10225787;28;20038;-63
2021/09/27 03:17:49;;;;;;;13.93;5.88;;;;;;;;;;10255591;28;20519;-63
2021/09/27 03:22:58;;;;;;;8.27;2.55;;;;;;;;;;10257514;28;20104;-63
2021/09/27 03:27:59;;;;;;;8.63;3.75;;;;;;;;;;10260988;28;20056;-64
2021/09/27 03:33:19;;;;;;;7.57;5.40;;;;;;;;;;10248717;28;20084;-62
2021/09/27 03:38:20;;;;;;;4.60;3.15;;;;;;;;;;10227116;28;20037;-65
2021/09/27 03:43:23;;;;;;;9.20;5.30;;;;;;;;;;10252516;28;20034;-63
2021/09/27 03:48:24;;;;;;;4.45;3.40;;;;;;;;;;10253937;28;20038;-63
2021/09/27 03:53:42;;;;;;;9.05;5.30;;;;;;;;;;10236879;28;20042;-64
2021/09/27 03:58:48;;;;;;;10.68;6.03;;;;;;;;;;10245070;28;20146;-62
2021/09/27 04:03:53;;;;;;;9.90;6.05;;;;;;;;;;10237469;28;20053;-62
2021/09/27 04:09:07;;;;;;;6.07;4.10;;;;;;;;;;10241885;28;20037;-62
2021/09/27 04:14:25;;;;;;;11.85;5.22;;;;;;;;;;10238839;28;20049;-64
2021/09/27 04:19:22;;;;;;;4.75;2.97;;;;;;;;;;10237564;28;20122;-65
2021/09/27 04:24:43;;;;;;;12.20;7.70;;;;;;;;;;10236711;28;20038;-64
2021/09/27 04:29:56;;;;;;;5.25;2.85;;;;;;;;;;10254606;28;20049;-65
2021/09/27 04:34:58;;;;;;;8.15;3.95;;;;;;;;;;10239731;28;20117;-66
2021/09/27 04:39:55;;;;;;;10.57;5.88;;;;;;;;;;10249823;28;20046;-64
2021/09/27 04:45:02;;;;;;;5.70;3.17;;;;;;;;;;10232568;28;20038;-63
2021/09/27 04:50:02;;;;;;;12.45;6.32;;;;;;;;;;10197474;28;20050;-65
2021/09/27 04:55:10;;;;;;;8.70;5.13;;;;;;;;;;10226040;28;20909;-65
2021/09/27 05:00:08;;;;;;;11.00;5.97;;;;;;;;;;10214608;28;20052;-68
2021/09/27 05:05:08;;;;;;;13.00;6.82;;;;;;;;;;10229320;28;20088;-65
2021/09/27 05:10:18;;;;;;;11.88;7.22;;;;;;;;;;10214936;28;20468;-65
2021/09/27 05:15:15;;;;;;;12.48;6.47;;;;;;;;;;10204148;28;20052;-65
2021/09/27 05:20:22;;;;;;;12.63;7.10;;;;;;;;;;10223898;28;20045;-65
2021/09/27 05:25:25;;;;;;;16.60;7.13;;;;;;;;;;10215227;28;20034;-65
2021/09/27 05:30:41;;;;;;;11.30;6.72;;;;;;;;;;10231818;28;20033;-64
2021/09/27 05:36:00;;;;;;;15.07;7.50;;;;;;;;;;10215701;28;20582;-66
2021/09/27 05:40:57;;;;;;;;;;;;;;;;;;10238782;28;20041;-66
2021/09/27 05:45:57;;;;;;;16.85;7.15;;;;;;;;;;10247047;28;20260;-65
2021/09/27 05:50:55;;;;;;;12.88;6.78;;;;;;;;;;10232432;28;20188;-64
2021/09/27 05:56:03;;;;;;;13.83;7.43;;;;;;;;;;10240630;28;20038;-67
2021/09/27 06:01:13;;;;;;;16.25;6.88;;;;;;;;;;10224528;28;20054;-66
2021/09/27 06:06:30;;;;;;;11.27;7.35;;;;;;;;;;10234949;28;20049;-64
2021/09/27 06:11:36;;;;;;;14.38;7.53;;;;;;;;;;10218928;28;20038;-65
2021/09/27 06:16:40;;;;;;;13.45;7.13;;;;;;;;;;10231444;28;20519;-65
2021/09/27 06:21:40;;;;;;;10.73;5.05;;;;;;;;;;10242957;28;20123;-64
2021/09/27 06:26:44;;;;;;;8.25;4.53;;;;;;;;;;10233708;28;20034;-62
2021/09/27 06:31:46;;;;;;;11.95;4.15;;;;;;;;;;10227599;28;20070;-63
2021/09/27 06:36:43;;;;;;;11.93;4.63;;;;;;;;;;10236113;28;20100;-64
2021/09/27 06:41:41;;;;;;;7.75;5.13;;;;;;;;;;10216958;28;20586;-67
2021/09/27 06:46:45;;;;;;;13.50;6.70;;;;;;;;;;10209050;28;20045;-63
2021/09/27 06:51:42;;;;;;;12.85;7.13;;;;;;;;;;10239746;28;20044;-68
2021/09/27 06:56:40;;;;;;;11.40;6.07;;;;;;;;;;10235552;28;20559;-65
2021/09/27 07:01:38;;;;;;;10.98;5.88;;;;;;;;;;10243081;28;20072;-64
2021/09/27 07:06:35;;;;;;;20.15;10.02;;;;;;;;;;10233451;28;20515;-64
2021/09/27 07:11:33;;;;;;;5.90;3.20;;;;;;;;;;10231292;28;20057;-64
2021/09/27 07:16:31;;;;;;;16.42;8.98;;;;;;;;;;10235703;28;20128;-64
2021/09/27 07:21:29;;;;;;;14.13;6.80;;;;;;;;;;10213593;28;20064;-63
2021/09/27 07:26:27;;;;;;;12.27;7.07;;;;;;;;;;10229362;28;20339;-63
2021/09/27 07:31:27;;;;;;;14.15;5.57;;;;;;;;;;10234581;28;20049;-62
2021/09/27 07:36:25;;;;;;;11.30;7.25;;;;;;;;;;10235963;28;20066;-63
2021/09/27 07:41:24;;;;;;;18.48;9.00;;;;;;;;;;10218650;28;20149;-64
2021/09/27 07:46:22;;;;;;;16.30;5.43;;;;;;;;;;10221868;28;20806;-65
2021/09/27 07:51:20;;;;;;;16.23;8.32;;;;;;;;;;10230740;28;20065;-60
2021/09/27 07:56:17;;;;;;;;;;;;;;;;;;10236858;28;20038;-64
2021/09/27 08:01:15;;;;;;;17.05;10.23;;;;;;;;;;10239694;28;19918;-63
2021/09/27 08:06:12;;;;;;;15.93;7.97;;;;;;;;;;10241536;28;20943;-64
2021/09/27 08:11:10;;;;;;;17.88;8.20;;;;;;;;;;10246398;28;20046;-65
2021/09/27 08:16:07;;;;;;;12.20;6.10;;;;;;;;;;10243543;28;20104;-65
2021/09/27 08:21:10;;;;;;;18.27;8.48;;;;;;;;;;10210507;28;20088;-63
2021/09/27 08:26:08;;;;;;;21.00;8.80;;;;;;;;;;10235616;28;20508;-64
2021/09/27 08:31:10;;;;;;;14.10;5.53;;;;;;;;;;10235247;28;21006;-67
2021/09/27 08:36:09;;;;;;;11.27;6.82;;;;;;;;;;10238222;28;20029;-64
2021/09/27 08:41:25;;;;;;;11.45;5.95;;;;;;;;;;10232789;28;20041;-65
2021/09/27 08:46:26;;;;;;;13.38;7.00;;;;;;;;;;10242575;28;20499;-64
2021/09/27 08:51:24;;;;;;;8.18;4.43;;;;;;;;;;10231855;28;20351;-64
2021/09/27 08:56:21;;;;;;;;;;;;;;;;;;10221900;28;20408;-65
2021/09/27 09:01:22;;;;;;;10.73;6.35;;;;;;;;;;10207984;28;20278;-66
2021/09/27 09:06:34;;;;;;;18.30;10.20;;;;;;;;;;10236543;28;20527;-65
2021/09/27 09:11:53;;;;;;;12.32;6.45;;;;;;;;;;10213629;28;20034;-65
2021/09/27 09:16:51;;;;;;;10.95;5.90;;;;;;;;;;10242918;28;20571;-66
2021/09/27 09:21:50;;;;;;;8.75;4.28;;;;;;;;;;10226746;28;20037;-65
2021/09/27 09:26:50;;;;;;;4.75;3.92;;;;;;;;;;10241606;28;20056;-65
2021/09/27 09:31:50;;;;;;;14.63;9.55;;;;;;;;;;10237822;28;20037;-65
2021/09/27 09:36:50;;;;;;;11.60;5.82;;;;;;;;;;10239522;28;20413;-65
2021/09/27 09:41:50;;;;;;;16.15;6.88;;;;;;;;;;10209090;28;20046;-64
2021/09/27 09:46:58;;;;;;;12.70;6.45;;;;;;;;;;10215396;28;20038;-66
2021/09/27 09:52:00;;;;;;;11.00;5.43;;;;;;;;;;10230023;28;20060;-64
2021/09/27 09:56:58;;;;;;;8.82;5.25;;;;;;;;;;10229582;28;20061;-65
2021/09/27 10:01:56;;;;;;;6.53;3.87;;;;;;;;;;10224845;28;20076;-65
2021/09/27 10:06:58;;;;;;;7.75;5.13;;;;;;;;;;10245446;28;20042;-64
2021/09/27 10:12:02;;;;;;;7.47;4.93;;;;;;;;;;10219519;28;20112;-65
2021/09/27 10:17:11;;;;;;;22.55;7.82;;;;;;;;;;10228609;28;20038;-66
2021/09/27 10:22:12;;;;;;;23.75;9.68;;;;;;;;;;10237615;28;20036;-65
2021/09/27 10:27:28;;;;;;;12.30;7.93;;;;;;;;;;10231828;28;20193;-66
2021/09/27 10:32:33;;;;;;;11.20;5.47;;;;;;;;;;10238023;28;20038;-66
2021/09/27 10:37:31;;;;;;;12.23;4.93;;;;;;;;;;10232817;28;20050;-65
2021/09/27 10:42:38;;;;;;;7.82;3.55;;;;;;;;;;10223486;28;20087;-64
2021/09/27 10:47:39;;;;;;;9.45;4.22;;;;;;;;;;10229909;28;20038;-64
2021/09/27 10:52:36;;;;;;;6.93;3.95;;;;;;;;;;10192471;28;20232;-65
2021/09/27 10:57:46;;;;;;;7.23;3.40;;;;;;;;;;10202903;28;20030;-63
2021/09/27 11:02:47;;;;;;;4.10;3.03;;;;;;;;;;10216154;28;20074;-64
2021/09/27 11:07:46;;;;;;;3.28;2.33;;;;;;;;;;10233543;28;20126;-65
2021/09/27 11:12:47;;;;;;;2.17;1.88;;;;;;;;;;10229797;28;20144;-66
2021/09/27 11:17:46;;;;;;;2.53;1.95;;;;;;;;;;10214604;28;20415;-64
2021/09/27 11:22:56;;;;;;;5.47;2.25;;;;;;;;;;10235895;28;20062;-65
2021/09/27 11:28:10;;;;;;;3.72;1.90;;;;;;;;;;10236540;28;20045;-64
2021/09/27 11:33:18;;;;;;;4.25;1.90;;;;;;;;;;10228802;28;20119;-65
2021/09/27 11:38:16;;;;;;;3.70;2.55;;;;;;;;;;10228369;28;20049;-64
2021/09/27 11:43:13;;;;;;;6.77;1.73;;;;;;;;;;10235105;28;20026;-65
2021/09/27 11:48:17;;;;;;;1.97;1.77;;;;;;;;;;10222688;28;20045;-64
2021/09/27 11:53:24;;;;;;;1.98;0.90;;;;;;;;;;10232671;28;20650;-64
2021/09/27 11:58:25;;;;;;;5.22;3.10;;;;;;;;;;10231655;28;20084;-65
2021/09/27 12:03:28;;;;;;;4.82;2.65;;;;;;;;;;10239268;28;20041;-66
2021/09/27 12:08:27;;;;;;;4.35;2.70;;;;;;;;;;10229728;28;20112;-63
2021/09/27 12:13:24;;;;;;;6.72;2.10;;;;;;;;;;10213673;28;20053;-65
2021/09/27 12:18:40;;;;;;;3.37;2.53;;;;;;;;;;10212626;28;20041;-65
2021/09/27 12:23:48;;;;;;;4.70;2.97;;;;;;;;;;10229716;28;20041;-65
2021/09/27 12:28:46;;;;;;;5.32;3.22;;;;;;;;;;10232857;28;20042;-64
2021/09/27 12:33:43;;;;;;;4.93;3.33;;;;;;;;;;10234568;28;20065;-65
2021/09/27 12:38:45;;;;;;;5.17;3.17;;;;;;;;;;10234300;28;20034;-64
2021/09/27 12:43:43;;;;;;;6.65;3.72;;;;;;;;;;10226583;28;20289;-65
2021/09/27 12:48:41;;;;;;;4.23;2.70;;;;;;;;;;10232704;28;20034;-64
2021/09/27 12:53:51;;;;;;;6.30;2.78;;;;;;;;;;10218544;28;20357;-65
2021/09/27 12:58:52;;;;;;;5.57;3.38;;;;;;;;;;10232670;28;20034;-65
2021/09/27 13:03:49;;;;;;;6.20;3.58;;;;;;;;;;10219314;28;20050;-63
2021/09/27 13:08:46;;;;;;;5.83;3.03;;;;;;;;;;10235945;28;20042;-64
2021/09/27 13:13:55;;;;;;;5.83;3.33;;;;;;;;;;10226435;28;20038;-65
2021/09/27 13:18:52;;;;;;;7.82;3.58;;;;;;;;;;10223513;28;20038;-63
2021/09/27 13:23:53;;;;;;;4.57;2.80;;;;;;;;;;10232102;28;20022;-64
2021/09/27 13:28:56;;;;;;;5.65;3.55;;;;;;;;;;10234586;28;20520;-63
2021/09/27 13:33:54;;;;;;;7.18;3.05;;;;;;;;;;10243222;28;20507;-65
2021/09/27 13:39:11;;;;;;;5.38;2.55;;;;;;;;;;10207661;28;20532;-63
2021/09/27 13:44:26;;;;;;;4.18;3.33;;;;;;;;;;10256406;28;20130;-62
2021/09/27 13:49:24;;;;;;;5.72;3.25;;;;;;;;;;10270616;28;20612;-62
2021/09/27 13:54:21;;;;;;;4.10;2.60;;;;;;;;;;10280892;28;20037;-62
2021/09/27 13:59:20;;;;;;;4.75;3.22;;;;;;;;;;10264246;28;20525;-62
2021/09/27 14:04:17;;;;;;;4.63;2.72;;;;;;;;;;10278504;28;20124;-61
2021/09/27 14:09:14;;;;;;;4.37;3.00;;;;;;;;;;10298416;28;20129;-61
2021/09/27 14:14:12;;;;;;;3.75;2.97;;;;;;;;;;10291694;28;20044;-63
2021/09/27 14:19:09;;;;;;;4.97;3.23;;;;;;;;;;10288747;28;20022;-61
2021/09/27 14:24:07;;;;;;;6.50;3.17;;;;;;;;;;10297640;28;20017;-62
2021/09/27 14:29:05;;;;;;;2.70;2.40;;;;;;;;;;10282817;28;20288;-61
2021/09/27 14:34:02;;;;;;;3.97;2.22;;;;;;;;;;10276023;28;20029;-61
2021/09/27 14:39:00;;;;;;;5.47;3.00;;;;;;;;;;10282982;28;20025;-62
2021/09/27 14:43:57;;;;;;;5.22;3.30;;;;;;;;;;10271659;28;20037;-63
2021/09/27 14:48:54;;;;;;;4.83;2.73;;;;;;;;;;10296799;28;20021;-62
2021/09/27 14:53:52;;;;;;;;;;;;;;;;;;10278313;28;20268;-61
2021/09/27 14:58:50;;;;;;;4.03;2.50;;;;;;;;;;10288895;28;19925;-62
2021/09/27 15:03:50;;;;;;;2.35;2.15;;;;;;;;;;10272960;28;20065;-64
2021/09/27 15:08:48;;;;;;;4.57;3.38;;;;;;;;;;10298008;28;20037;-61
2021/09/27 15:13:46;;;;;;;;;;;;;;;;;;10298521;28;20037;-61
2021/09/27 15:18:43;;;;;;;2.85;2.63;;;;;;;;;;10293700;28;19943;-65
2021/09/27 15:23:42;;;;;;;4.63;2.67;;;;;;;;;;10283649;28;20690;-66
2021/09/27 15:28:41;;;;;;;4.93;2.47;;;;;;;;;;10265248;22;20041;-61
2021/09/27 15:33:40;;;;;;;8.38;5.53;;;;;;;;;;10264388;28;20049;-61
2021/09/27 15:38:38;;;;;;;6.78;4.18;;;;;;;;;;10271286;28;20030;-62
2021/09/27 15:43:36;;;;;;;4.78;3.05;;;;;;;;;;10236827;28;20037;-62
2021/09/27 15:48:33;;;;;;;;;;;;;;;;;;10219399;28;20045;-60
2021/09/27 15:53:30;;;;;;;5.57;3.53;;;;;;;;;;10230482;28;20367;-62
2021/09/27 15:58:32;;;;;;;;;;;;;;;;;;10239591;22;20046;-63
2021/09/27 16:03:32;;;;;;;6.07;2.90;;;;;;;;;;10246007;28;20437;-64
2021/09/27 16:08:29;;;;;;;3.40;2.00;;;;;;;;;;10212318;28;21222;-64
2021/09/27 16:13:27;;;;;;;;;;;;;;;;;;10191141;28;20043;-64
2021/09/27 16:18:24;;;;;;;5.05;3.67;;;;;;;;;;10209457;28;19914;-66
2021/09/27 16:23:21;;;;;;;;;;;;;;;;;;10196351;28;20046;-64
2021/09/27 16:28:19;;;;;;;8.43;3.83;;;;;;;;;;10242157;28;20027;-63
2021/09/27 16:33:16;;;;;;;;;;;;;;;;;;10219759;23;20490;-61
2021/09/27 16:38:13;;;;;;;5.47;2.93;;;;;;;;;;10242160;28;20012;-59
2021/09/27 16:43:11;;;;;;;5.70;3.17;;;;;;;;;;10251229;28;20161;-62
2021/09/27 16:48:09;;;;;;;5.13;4.13;;;;;;;;;;10280765;28;20026;-62
2021/09/27 16:53:06;;;;;;;6.28;3.65;;;;;;;;;;10249894;28;20132;-61
2021/09/27 16:58:04;;;;;;;8.43;4.60;;;;;;;;;;10233608;28;20188;-62
2021/09/27 17:03:01;;;;;;;7.47;4.77;;;;;;;;;;10251117;28;20072;-62
2021/09/27 17:07:58;;;;;;;;;;;;;;;;;;10237695;28;20404;-62
2021/09/27 17:12:56;;;;;;;5.55;4.18;;;;;;;;;;10253516;28;19925;-61
2021/09/27 17:17:53;;;;;;;8.83;6.33;;;;;;;;;;10240542;28;20033;-63
2021/09/27 17:22:50;;;;;;;;;;;;;;;;;;10241413;28;20553;-63
2021/09/27 17:27:48;;;;;;;8.73;3.38;;;;;;;;;;10251438;28;19913;-62
2021/09/27 17:32:45;;;;;;;4.40;3.42;;;;;;;;;;10246381;28;20180;-61
2021/09/27 17:37:43;;;;;;;7.85;4.10;;;;;;;;;;10279199;28;20507;-62
2021/09/27 17:42:41;;;;;;;5.40;3.53;;;;;;;;;;10253109;28;20041;-62
2021/09/27 17:47:39;;;;;;;8.18;4.43;;;;;;;;;;10247224;28;20034;-62
2021/09/27 17:52:38;;;;;;;3.67;2.85;;;;;;;;;;10250705;28;20067;-62
2021/09/27 17:57:36;;;;;;;8.55;5.45;;;;;;;;;;10228389;28;20065;-62
2021/09/27 18:02:33;;;;;;;;;;;;;;;;;;10230402;28;20125;-62
2021/09/27 18:07:31;;;;;;;5.47;2.53;;;;;;;;;;10237233;28;20028;-62
2021/09/27 18:12:28;;;;;;;4.47;1.67;;;;;;;;;;10251429;28;20200;-60
2021/09/27 18:17:28;;;;;;;6.70;2.43;;;;;;;;;;10249180;28;20407;-59
2021/09/27 18:22:26;;;;;;;3.13;2.38;;;;;;;;;;10271525;28;20114;-61
2021/09/27 18:27:23;;;;;;;7.37;2.80;;;;;;;;;;10278366;28;20057;-62
2021/09/27 18:32:21;;;;;;;4.80;2.93;;;;;;;;;;10283822;28;20034;-63
2021/09/27 18:37:18;;;;;;;5.17;2.87;;;;;;;;;;10281995;28;20037;-61
2021/09/27 18:42:15;;;;;;;22.03;3.83;;;;;;;;;;10283284;28;20055;-60
2021/09/27 18:47:13;;;;;;;5.07;3.17;;;;;;;;;;10283118;28;20079;-59
2021/09/27 18:52:10;;;;;;;6.83;2.70;;;;;;;;;;10283107;28;20034;-63
2021/09/27 18:57:08;;;;;;;6.83;3.03;;;;;;;;;;10279318;28;21796;-61
2021/09/27 19:02:05;;;;;;;12.57;5.33;;;;;;;;;;10274918;28;20308;-61
2021/09/27 19:07:03;;;;;;;13.93;4.80;;;;;;;;;;10277869;28;20608;-63
2021/09/27 19:12:00;;;;;;;14.18;2.90;;;;;;;;;;10272748;28;20044;-61
2021/09/27 19:16:58;;;;;;;2.17;1.10;;;;;;;;;;10273836;28;20119;-62
2021/09/27 19:21:55;;;;;;;3.03;1.70;;;;;;;;;;10276917;28;20055;-61
2021/09/27 19:26:53;;;;;;;3.30;2.00;;;;;;;;;;10262598;28;20572;-61
2021/09/27 19:31:52;;;;;;;4.60;1.50;;;;;;;;;;10271208;28;21002;-61
2021/09/27 19:36:50;;;;;;;3.17;1.58;;;;;;;;;;10274177;28;20045;-61
2021/09/27 19:41:47;;;;;;;2.83;1.83;;;;;;;;;;10262267;28;20040;-61
2021/09/27 19:46:45;;;;;;;2.27;1.40;;;;;;;;;;10236187;28;20042;-61
2021/09/27 19:51:42;;;;;;;2.23;0.57;;;;;;;;;;10244186;28;20052;-61
2021/09/27 19:56:40;;;;;;;3.35;0.77;;;;;;;;;;10252154;28;20037;-61
2021/09/27 20:01:38;;;;;;;1.47;0.67;;;;;;;;;;10261239;28;20045;-61
2021/09/27 20:06:36;;;;;;;1.83;0.95;;;;;;;;;;10232927;28;20092;-62
2021/09/27 20:11:34;;;;;;;0.85;0.40;;;;;;;;;;10250085;28;20042;-60
2021/09/27 20:16:31;;;;;;;3.47;1.20;;;;;;;;;;10229254;28;20034;-61
2021/09/27 20:21:28;;;;;;;2.33;0.70;;;;;;;;;;10231000;28;20484;-61
2021/09/27 20:26:26;;;;;;;7.83;1.20;;;;;;;;;;10260562;28;20550;-62
2021/09/27 20:31:23;;;;;;;11.80;1.27;;;;;;;;;;10269365;28;20073;-61
2021/09/27 20:36:21;;;;;;;9.07;1.73;;;;;;;;;;10213729;28;20053;-62
2021/09/27 20:41:18;;;;;;;7.23;1.47;;;;;;;;;;10241414;28;20030;-61
2021/09/27 20:46:16;;;;;;;14.63;1.80;;;;;;;;;;10225916;28;20137;-59
2021/09/27 20:51:13;;;;;;;13.70;1.70;;;;;;;;;;10218873;28;20057;-61
2021/09/27 20:56:11;;;;;;;10.00;1.13;;;;;;;;;;10245293;28;20042;-60
2021/09/27 21:01:08;;;;;;;9.00;1.40;;;;;;;;;;10240385;28;20048;-61
2021/09/27 21:06:06;;;;;;;8.40;1.40;;;;;;;;;;10244499;28;20037;-60
2021/09/27 21:11:04;;;;;;;8.80;1.58;;;;;;;;;;10228695;28;20044;-61
2021/09/27 21:16:01;;;;;;;6.75;1.00;;;;;;;;;;10226716;28;21241;-61
2021/09/27 21:20:59;;;;;;;6.80;1.03;;;;;;;;;;10259461;28;20038;-62
2021/09/27 21:25:56;;;;;;;11.57;1.47;;;;;;;;;;10269779;28;20038;-59
2021/09/27 21:30:54;;;;;;;7.47;1.23;;;;;;;;;;10244951;28;20664;-61
2021/09/27 21:35:51;;;;;;;12.70;2.00;;;;;;;;;;10249793;28;20038;-59
2021/09/27 21:40:49;;;;;;;9.40;1.33;;;;;;;;;;10243937;28;20124;-58
2021/09/27 21:45:47;;;;;;;8.88;1.30;;;;;;;;;;10262207;28;20411;-60
2021/09/27 21:50:45;;;;;;;7.95;0.82;;;;;;;;;;10285736;28;20091;-62
2021/09/27 21:55:43;;;;;;;7.30;1.40;;;;;;;;;;10273248;28;20552;-64
2021/09/27 22:00:58;;;;;;;10.47;1.33;;;;;;;;;;10274252;28;20125;-63
2021/09/27 22:05:55;;;;;;;10.00;1.67;;;;;;;;;;10278749;28;20041;-62
2021/09/27 22:10:55;;;;;;;7.93;2.13;;;;;;;;;;10275146;28;20522;-62
2021/09/27 22:15:53;;;;;;;5.03;1.30;;;;;;;;;;10273800;28;20280;-64
2021/09/27 22:20:50;;;;;;;10.63;1.63;;;;;;;;;;10284849;28;20049;-63
2021/09/27 22:25:48;;;;;;;6.03;1.40;;;;;;;;;;10264674;28;20041;-61
2021/09/27 22:30:45;;;;;;;6.87;1.40;;;;;;;;;;10293189;28;20057;-61
2021/09/27 22:35:43;;;;;;;8.57;1.58;;;;;;;;;;10288924;28;20552;-61
2021/09/27 22:40:40;;;;;;;9.47;1.40;;;;;;;;;;10290532;28;20037;-61
2021/09/27 22:45:37;;;;;;;9.03;1.20;;;;;;;;;;10289231;28;20124;-61
2021/09/27 22:50:38;;;;;;;5.70;1.17;;;;;;;;;;10293372;28;20046;-60
2021/09/27 22:55:36;;;;;;;4.18;0.77;;;;;;;;;;10283655;28;20033;-62
2021/09/27 23:00:33;;;;;;;8.67;2.20;;;;;;;;;;10284617;28;20535;-61
2021/09/27 23:05:30;;;;;;;9.30;1.50;;;;;;;;;;10283202;28;20029;-62
2021/09/27 23:10:28;;;;;;;13.17;1.83;;;;;;;;;;10261787;28;20158;-61
2021/09/27 23:15:25;;;;;;;6.30;1.27;;;;;;;;;;10285738;28;20056;-60
2021/09/27 23:20:23;;;;;;;8.37;1.17;;;;;;;;;;10284393;28;20500;-62
2021/09/27 23:25:23;;;;;;;7.60;1.57;;;;;;;;;;10289599;28;20284;-63
2021/09/27 23:30:20;;;;;;;9.45;1.83;;;;;;;;;;10288049;28;20037;-61
2021/09/27 23:35:18;;;;;;;8.67;1.37;;;;;;;;;;10299585;28;20680;-62
2021/09/27 23:40:16;;;;;;;8.32;1.27;;;;;;;;;;10292758;28;20042;-63
2021/09/27 23:45:15;;;;;;;4.75;1.13;;;;;;;;;;10298914;28;20095;-63
2021/09/27 23:50:13;;;;;;;0.20;0.20;;;;;;;;;;10290532;28;20091;-63
2021/09/27 23:55:10;;;;;;;0.47;0.43;;;;;;;;;;10280155;28;20056;-62
